Time;durP1;ratioP1;P1;durP2;ratioP2;P2;SDS_P1;SDS_P2;PMS_P1;PMS_P2;Temp;Humidity;BMP_temperature;BMP_pressure;BME280_temperature;BME280_humidity;BME280_pressure;Samples;Min_cycle;Max_cycle;Signal;HPM_P1;HPM_P2
2022/03/30 00:01:13;;;;;;;20.45;10.20;;;;;;;16.21;27.51;98641.03;7847341;31;37817;-70
2022/03/30 00:05:29;;;;;;;20.55;9.70;;;;;;;16.09;27.72;98630.78;7847258;31;37211;-70
2022/03/30 00:09:45;;;;;;;18.62;9.38;;;;;;;16.02;27.70;98627.75;7847026;31;39936;-69
2022/03/30 00:14:02;;;;;;;18.48;9.93;;;;;;;16.11;27.68;98625.75;7847065;31;40928;-70
2022/03/30 00:18:19;;;;;;;21.87;10.27;;;;;;;15.92;28.03;98628.19;7846765;31;38610;-70
2022/03/30 00:22:35;;;;;;;19.87;9.75;;;;;;;15.98;28.03;98635.06;7846954;31;37871;-70
2022/03/30 00:26:51;;;;;;;20.45;9.88;;;;;;;15.98;27.94;98626.03;7845814;31;39397;-70
2022/03/30 00:31:08;;;;;;;22.98;9.45;;;;;;;15.97;28.06;98622.47;7846946;31;40854;-70
2022/03/30 00:35:24;;;;;;;18.33;9.30;;;;;;;15.98;28.05;98620.53;7846682;31;38591;-70
2022/03/30 00:39:40;;;;;;;16.85;8.55;;;;;;;16.08;28.03;98618.16;7846542;31;36686;-70
2022/03/30 00:43:56;;;;;;;17.15;8.88;;;;;;;16.09;28.40;98616.22;7846757;31;39164;-70
2022/03/30 00:48:12;;;;;;;18.85;9.60;;;;;;;15.91;29.05;98612.81;7846391;31;41136;-70
2022/03/30 00:52:28;;;;;;;19.80;10.07;;;;;;;15.82;29.35;98590.91;7845570;31;37681;-70
2022/03/30 00:56:44;;;;;;;17.92;9.55;;;;;;;15.83;29.37;98587.00;7846290;31;36920;-71
2022/03/30 01:01:01;;;;;;;20.30;10.13;;;;;;;15.70;29.18;98580.63;7845218;31;39023;-70
2022/03/30 01:05:18;;;;;;;20.95;9.90;;;;;;;15.73;28.85;98582.69;7846238;31;39978;-71
2022/03/30 01:09:34;;;;;;;17.05;9.60;;;;;;;15.91;28.04;98571.59;7845899;31;37617;-70
2022/03/30 01:13:50;;;;;;;22.37;10.32;;;;;;;15.88;27.92;98561.25;7846074;31;36701;-70
2022/03/30 01:18:19;;;;;;;20.00;10.45;;;;;;;15.84;27.93;98557.59;7845497;31;39206;-70
2022/03/30 01:22:35;;;;;;;17.33;9.77;;;;;;;15.99;27.69;98556.97;7845779;31;40621;-70
2022/03/30 01:26:51;;;;;;;17.77;9.68;;;;;;;15.71;28.24;98563.00;7845658;31;37998;-70
2022/03/30 01:35:42;;;;;;;16.40;9.77;;;;;;;15.99;28.11;98550.66;7817983;32;39218;-71
2022/03/30 01:40:00;;;;;;;21.95;10.02;;;;;;;16.02;27.94;98547.22;7842852;31;40611;-70
2022/03/30 01:44:16;;;;;;;18.67;10.13;;;;;;;15.82;28.17;98546.16;7845327;31;37665;-71
2022/03/30 01:48:32;;;;;;;18.40;10.00;;;;;;;15.74;28.58;98539.53;7844703;31;37634;-70
2022/03/30 01:52:49;;;;;;;25.48;10.00;;;;;;;15.69;28.93;98540.53;7844788;31;40003;-70
2022/03/30 01:57:06;;;;;;;15.80;8.95;;;;;;;15.40;29.90;98547.72;7844542;31;40776;-71
2022/03/30 02:01:22;;;;;;;23.55;11.05;;;;;;;15.36;29.98;98543.22;7844854;31;38567;-70
2022/03/30 02:05:39;;;;;;;23.65;10.45;;;;;;;15.33;29.94;98541.97;7846683;31;37164;-70
2022/03/30 02:09:55;;;;;;;23.83;11.43;;;;;;;14.97;30.75;98537.00;7847993;31;39275;-70
2022/03/30 02:14:11;;;;;;;21.48;10.38;;;;;;;15.13;30.36;98543.53;7848501;31;40730;-70
2022/03/30 02:18:27;;;;;;;18.77;10.82;;;;;;;15.10;30.62;98540.66;7847986;31;37989;-70
2022/03/30 02:22:43;;;;;;;20.67;10.90;;;;;;;15.13;30.51;98546.28;7847867;31;37860;-70
2022/03/30 02:27:00;;;;;;;22.65;11.15;;;;;;;14.82;31.10;98538.37;7848419;31;39342;-70
2022/03/30 02:31:16;;;;;;;23.15;11.25;;;;;;;14.89;30.70;98538.66;7847502;31;39849;-70
2022/03/30 02:35:32;;;;;;;21.90;11.18;;;;;;;14.86;30.71;98536.59;7848124;31;37992;-69
2022/03/30 02:39:48;;;;;;;22.17;10.88;;;;;;;14.83;30.77;98539.97;7848146;31;37096;-70
2022/03/30 02:44:04;;;;;;;25.10;12.40;;;;;;;14.50;31.49;98537.84;7848234;31;39164;-70
2022/03/30 02:48:28;;;;;;;30.05;11.40;;;;;;;14.76;30.87;98534.22;7848022;31;40071;-70
2022/03/30 02:52:44;;;;;;;19.00;11.20;;;;;;;14.63;31.22;98544.28;7847794;31;38697;-70
2022/03/30 02:57:01;;;;;;;22.50;10.88;;;;;;;14.48;31.83;98537.37;7848123;31;36892;-70
2022/03/30 03:01:17;;;;;;;25.85;11.70;;;;;;;14.32;32.22;98547.28;7848078;31;39995;-70
2022/03/30 03:05:34;;;;;;;22.13;11.75;;;;;;;14.18;32.51;98552.94;7847898;31;39917;-70
2022/03/30 03:09:50;;;;;;;19.62;11.50;;;;;;;14.06;32.83;98554.41;7847536;31;37909;-70
2022/03/30 03:14:07;;;;;;;20.65;9.80;;;;;;;14.14;32.74;98568.41;7847917;31;37841;-70
2022/03/30 03:18:23;;;;;;;20.98;10.57;;;;;;;13.96;33.38;98567.66;7847277;31;39266;-70
2022/03/30 03:22:40;;;;;;;22.13;10.67;;;;;;;13.99;33.34;98567.00;8087494;26;39945;-67
2022/03/30 03:26:57;;;;;;;23.98;11.75;;;;;;;13.72;34.08;98563.47;7818379;32;37492;-68
2022/03/30 03:31:13;;;;;;;25.20;10.88;;;;;;;13.64;34.18;98569.75;7803270;32;37234;-68
2022/03/30 03:35:30;;;;;;;21.05;11.63;;;;;;;13.60;34.02;98566.03;7792615;32;39285;-68
2022/03/30 03:39:46;;;;;;;21.20;10.77;;;;;;;13.64;33.57;98567.00;7792595;32;40779;-68
2022/03/30 03:44:03;;;;;;;20.20;10.52;;;;;;;13.46;33.79;98569.72;7792499;32;38089;-68
2022/03/30 03:48:19;;;;;;;23.80;10.88;;;;;;;13.39;33.95;98572.12;7800329;32;37386;-69
2022/03/30 03:52:36;;;;;;;21.37;11.45;;;;;;;13.41;33.90;98563.62;7819782;32;39369;-68
2022/03/30 03:56:52;;;;;;;23.58;12.00;;;;;;;13.32;33.98;98574.56;7819609;32;39975;-68
2022/03/30 04:01:09;;;;;;;23.80;11.05;;;;;;;13.09;34.32;98574.63;7819653;32;38006;-68
2022/03/30 04:05:25;;;;;;;23.80;11.68;;;;;;;13.15;34.42;98581.56;7819590;32;37049;-69
2022/03/30 04:09:41;;;;;;;22.85;11.35;;;;;;;12.91;34.73;98583.91;7819624;32;40146;-68
2022/03/30 04:14:03;;;;;;;23.15;11.12;;;;;;;12.93;34.72;98582.44;7818072;32;39904;-68
2022/03/30 04:18:21;;;;;;;24.73;11.20;;;;;;;12.87;34.83;98574.72;7810682;32;38007;-68
2022/03/30 04:22:37;;;;;;;24.15;11.48;;;;;;;12.77;34.93;98573.88;7792183;32;37779;-68
2022/03/30 04:26:54;;;;;;;22.75;11.30;;;;;;;12.66;35.36;98582.66;7791964;32;39376;-68
2022/03/30 04:31:13;;;;;;;27.73;12.50;;;;;;;12.87;35.17;98577.47;7791159;32;39766;-68
2022/03/30 04:35:30;;;;;;;22.48;11.48;;;;;;;12.59;35.71;98572.22;7791839;32;37773;-69
2022/03/30 04:39:46;;;;;;;21.17;10.60;;;;;;;12.56;35.79;98562.69;7791926;32;36781;-68
2022/03/30 04:44:02;;;;;;;23.42;11.65;;;;;;;12.48;36.10;98566.19;7792320;32;37789;-69
2022/03/30 04:48:18;;;;;;;20.23;10.82;;;;;;;12.33;36.45;98570.16;7800071;32;39582;-68
2022/03/30 04:52:34;;;;;;;24.92;10.68;;;;;;;12.42;36.24;98566.63;7818893;32;38564;-68
2022/03/30 04:56:51;;;;;;;22.27;11.02;;;;;;;12.25;36.53;98570.91;7818753;32;37920;-68
2022/03/30 05:01:08;;;;;;;21.17;10.85;;;;;;;12.30;36.38;98581.69;7818851;32;39322;-68
2022/03/30 05:05:24;;;;;;;19.27;10.70;;;;;;;12.22;36.65;98582.44;7818624;32;40834;-69
2022/03/30 05:09:41;;;;;;;20.67;11.18;;;;;;;12.10;37.31;98587.69;7818553;32;38573;-68
2022/03/30 05:13:57;;;;;;;19.12;10.65;;;;;;;12.21;37.18;98580.81;7804253;32;37843;-68
2022/03/30 05:18:13;;;;;;;19.90;9.95;;;;;;;12.22;37.12;98579.72;7817028;32;39189;-68
2022/03/30 05:22:30;;;;;;;19.62;10.68;;;;;;;12.32;37.32;98595.06;7818270;32;40829;-68
2022/03/30 05:26:46;;;;;;;20.95;11.00;;;;;;;12.27;37.25;98595.97;7817917;32;37897;-68
2022/03/30 05:31:02;;;;;;;23.08;10.93;;;;;;;12.19;38.29;98594.00;7803579;32;36869;-69
2022/03/30 05:35:18;;;;;;;18.40;10.05;;;;;;;12.16;38.51;98591.91;7790578;32;39154;-68
2022/03/30 05:39:39;;;;;;;28.35;10.45;;;;;;;12.25;38.28;98606.44;7791298;32;39929;-68
2022/03/30 05:43:56;;;;;;;20.85;10.07;;;;;;;12.49;37.96;98616.22;7794004;32;37978;-68
2022/03/30 05:48:12;;;;;;;17.42;10.20;;;;;;;12.28;38.95;98614.00;7804559;32;37076;-69
2022/03/30 05:52:29;;;;;;;24.45;9.75;;;;;;;12.58;38.17;98608.88;7794125;32;39739;-68
2022/03/30 05:57:00;;;;;;;32.03;10.27;;;;;;;12.71;37.64;98602.50;7793791;32;39582;-68
2022/03/30 06:01:16;;;;;;;17.70;9.30;;;;;;;12.66;37.91;98605.38;7793932;32;38165;-68
2022/03/30 06:05:33;;;;;;;19.23;9.68;;;;;;;12.89;36.98;98611.56;7793855;32;37793;-68
2022/03/30 06:09:49;;;;;;;27.02;11.30;;;;;;;13.01;36.89;98624.66;7792536;32;39290;-68
2022/03/30 06:14:05;;;;;;;37.78;9.63;;;;;;;13.06;37.36;98629.97;7806384;32;40795;-68
2022/03/30 06:18:22;;;;;;;19.33;8.55;;;;;;;12.94;38.31;98627.03;7819533;32;37989;-68
2022/03/30 06:22:39;;;;;;;24.42;9.45;;;;;;;13.24;40.79;98646.47;7820681;32;38271;-68
2022/03/30 06:26:56;;;;;;;24.92;11.68;;;;;;;13.63;39.54;98631.94;7816749;32;40031;-69
2022/03/30 06:31:17;;;;;;;27.98;11.20;;;;;;;13.81;37.64;98621.78;7819539;32;39895;-69
2022/03/30 06:35:33;;;;;;;27.58;10.77;;;;;;;13.87;37.10;98623.25;7820548;32;38805;-69
2022/03/30 06:39:50;;;;;;;21.17;12.07;;;;;;;14.13;35.76;98627.91;7820632;32;37032;-69
2022/03/30 06:44:06;;;;;;;24.23;11.68;;;;;;;14.20;35.30;98628.22;7820693;32;39572;-69
2022/03/30 06:48:22;;;;;;;31.67;11.65;;;;;;;14.56;35.09;98638.00;7804912;32;39561;-82
2022/03/30 06:52:38;;;;;;;27.33;12.73;;;;;;;14.53;37.95;98630.44;7787811;32;38569;-69
2022/03/30 06:56:54;;;;;;;24.77;12.43;;;;;;;14.83;35.93;98638.75;7789645;32;37344;-68
2022/03/30 07:01:12;;;;;;;38.95;14.32;;;;;;;14.51;36.37;98634.63;7790589;32;39120;-69
2022/03/30 07:05:28;;;;;;;35.05;14.23;;;;;;;14.54;36.63;98643.00;7792071;32;40526;-69
2022/03/30 07:14:19;;;;;;;41.25;13.98;;;;;;;14.61;36.83;98635.13;7792862;32;37080;-68
2022/03/30 07:18:35;;;;;;;21.73;11.93;;;;;;;14.58;37.18;98633.03;7792887;32;39930;-69
2022/03/30 07:22:52;;;;;;;20.77;12.07;;;;;;;14.82;36.70;98637.16;7792572;32;39936;-69
2022/03/30 07:27:08;;;;;;;25.55;11.88;;;;;;;14.64;37.10;98636.37;7792571;32;38591;-69
2022/03/30 07:31:24;;;;;;;22.20;11.45;;;;;;;14.79;36.61;98630.38;7792591;32;36792;-69
2022/03/30 07:35:48;;;;;;;22.05;11.88;;;;;;;14.91;36.36;98624.19;7792258;32;39997;-68
2022/03/30 07:40:07;;;;;;;19.65;11.05;;;;;;;15.62;34.37;98628.19;7792516;32;40060;-69
2022/03/30 07:44:23;;;;;;;25.33;11.55;;;;;;;15.74;34.62;98617.25;7792471;32;38175;-69
2022/03/30 07:48:39;;;;;;;24.20;11.30;;;;;;;16.11;33.88;98598.25;7791811;32;37852;-68
2022/03/30 07:52:55;;;;;;;30.98;12.18;;;;;;;16.39;33.01;98605.91;7792455;32;39221;-69
2022/03/30 07:57:12;;;;;;;28.12;11.38;;;;;;;16.47;33.20;98599.53;7791860;32;39949;-68
2022/03/30 08:01:28;;;;;;;20.60;12.20;;;;;;;16.35;33.67;98605.00;7792147;32;38000;-69
2022/03/30 08:05:44;;;;;;;24.65;12.23;;;;;;;15.51;34.63;98603.06;7791831;32;38250;-69
2022/03/30 08:10:00;;;;;;;20.52;11.18;;;;;;;16.21;33.61;98608.03;7790677;32;39757;-69
2022/03/30 08:14:16;;;;;;;24.00;11.80;;;;;;;16.70;32.72;98607.34;7791189;32;39652;-69
2022/03/30 08:18:32;;;;;;;24.98;11.80;;;;;;;16.63;32.52;98601.63;7788874;32;38204;-69
2022/03/30 08:22:48;;;;;;;20.25;11.12;;;;;;;16.77;32.63;98607.59;7789173;32;37141;-69
2022/03/30 08:27:05;;;;;;;19.73;11.35;;;;;;;16.75;32.45;98615.41;7816919;32;39225;-69
2022/03/30 08:31:21;;;;;;;24.63;11.20;;;;;;;16.54;33.86;98609.97;7815846;32;39928;-69
2022/03/30 08:35:37;;;;;;;21.33;11.90;;;;;;;17.26;32.11;98613.16;7816798;32;38024;-69
2022/03/30 08:39:53;;;;;;;21.35;10.50;;;;;;;16.96;32.13;98609.03;7815900;32;37987;-69
2022/03/30 08:44:12;;;;;;;26.40;11.18;;;;;;;16.80;33.35;98606.09;7807819;32;40098;-70
2022/03/30 08:48:29;;;;;;;21.00;10.88;;;;;;;17.71;30.88;98607.81;7812413;32;39678;-70
2022/03/30 08:52:49;;;;;;;22.15;12.00;;;;;;;18.07;30.60;98606.13;7791636;32;39151;-70
2022/03/30 08:57:07;;;;;;;23.98;11.45;;;;;;;18.34;29.42;98599.78;7791589;32;37070;-70
2022/03/30 09:01:24;;;;;;;24.33;11.68;;;;;;;18.04;29.99;98607.66;7791323;32;39435;-69
2022/03/30 09:05:40;;;;;;;20.08;10.30;;;;;;;18.43;28.83;98598.84;7791247;32;39644;-70
2022/03/30 09:09:59;;;;;;;20.35;10.52;;;;;;;18.80;28.09;98590.31;7791046;32;38175;-71
2022/03/30 09:14:18;;;;;;;23.08;10.15;;;;;;;18.91;27.86;98595.00;7782870;32;37913;-70
2022/03/30 09:18:34;;;;;;;20.40;9.77;;;;;;;18.97;27.69;98598.28;7804143;32;40326;-77
2022/03/30 09:22:57;;;;;;;19.73;10.50;;;;;;;19.03;28.60;98594.09;7816630;32;39922;-70
2022/03/30 09:27:30;;;;;;;19.58;9.30;;;;;;;19.19;26.93;98591.31;7817909;32;38522;-70
2022/03/30 09:31:49;;;;;;;19.25;9.93;;;;;;;19.24;26.43;98581.97;7803896;32;37062;-70
2022/03/30 09:36:25;;;;;;;21.75;9.48;;;;;;;19.20;26.97;98581.09;7803999;32;39906;-70
2022/03/30 09:40:41;;;;;;;22.30;9.13;;;;;;;19.60;26.55;98566.19;7817793;32;40012;-70
2022/03/30 09:44:57;;;;;;;18.42;8.90;;;;;;;19.65;25.95;98560.37;7805704;32;38644;-70
2022/03/30 09:49:33;;;;;;;19.58;9.05;;;;;;;19.92;25.72;98555.00;7799784;32;36994;-70
2022/03/30 09:53:49;;;;;;;16.40;8.63;;;;;;;20.18;25.45;98551.56;7805431;32;40024;-70
2022/03/30 09:58:06;;;;;;;13.27;7.60;;;;;;;20.63;24.54;98537.00;7817430;32;40789;-81
2022/03/30 10:02:24;;;;;;;15.18;7.18;;;;;;;20.35;23.57;98536.47;7803363;32;38680;-73
2022/03/30 10:06:41;;;;;;;14.02;7.30;;;;;;;21.25;23.65;98524.09;7815851;32;37078;-74
2022/03/30 10:11:01;;;;;;;15.52;7.75;;;;;;;21.06;24.88;98511.12;7816853;32;39313;-71
2022/03/30 10:15:17;;;;;;;14.23;7.30;;;;;;;21.12;22.84;98501.34;7788437;32;42573;-71
2022/03/30 10:19:33;;;;;;;18.20;6.97;;;;;;;21.14;22.37;98496.22;7789497;32;38044;-71
2022/03/30 10:23:52;;;;;;;15.73;8.30;;;;;;;21.43;22.73;98491.87;7795026;32;37062;-72
2022/03/30 10:28:11;;;;;;;12.90;7.32;;;;;;;21.63;23.01;98486.19;7817641;32;38990;-71
2022/03/30 10:32:33;;;;;;;16.40;7.65;;;;;;;21.76;21.55;98484.78;7820407;32;39950;-72
2022/03/30 10:37:05;;;;;;;16.92;7.93;;;;;;;21.72;22.20;98467.31;7804361;32;37856;-71
2022/03/30 10:41:21;;;;;;;14.87;8.15;;;;;;;21.46;21.52;98470.94;7819692;32;36876;-71
2022/03/30 10:45:57;;;;;;;17.80;7.85;;;;;;;21.76;21.87;98466.16;7800347;32;39543;-72
2022/03/30 10:50:31;;;;;;;18.95;8.23;;;;;;;22.37;21.64;98457.69;7793056;32;39988;-71
2022/03/30 10:54:50;;;;;;;21.65;7.85;;;;;;;22.51;20.23;98443.12;7791962;32;37968;-70
2022/03/30 10:59:08;;;;;;;16.33;7.70;;;;;;;22.52;20.19;98455.03;7793342;32;37376;-71
2022/03/30 11:03:26;;;;;;;22.33;8.07;;;;;;;22.14;20.12;98435.62;7794314;32;39160;-83
2022/03/30 11:07:44;;;;;;;19.48;9.35;;;;;;;22.30;21.96;98439.00;7799226;32;39977;-71
2022/03/30 11:12:12;;;;;;;14.68;8.25;;;;;;;22.17;19.84;98431.31;7793082;32;37873;-71
2022/03/30 11:17:00;;;;;;;20.02;8.55;;;;;;;22.24;20.44;98432.16;7817888;32;36738;-71
2022/03/30 11:21:18;;;;;;;20.10;8.55;;;;;;;21.63;20.75;98426.00;7804906;32;39215;-70
2022/03/30 11:25:49;;;;;;;19.10;9.05;;;;;;;21.80;21.12;98432.13;7818393;32;40518;-70
2022/03/30 11:30:09;;;;;;;17.30;8.50;;;;;;;21.26;21.10;98426.72;7807348;32;38422;-70
2022/03/30 11:34:31;;;;;;;18.70;8.75;;;;;;;21.20;21.21;98431.00;7819020;32;36953;-70
2022/03/30 11:38:48;;;;;;;20.10;9.57;;;;;;;21.13;22.00;98426.16;7805857;32;40037;-69
2022/03/30 11:43:05;;;;;;;21.60;9.15;;;;;;;21.04;22.07;98416.53;7802189;32;40014;-70
2022/03/30 11:47:45;;;;;;;21.87;9.50;;;;;;;21.41;21.28;98421.38;7792112;32;38163;-69
2022/03/30 11:52:17;;;;;;;18.97;10.37;;;;;;;21.43;21.00;98397.62;7792642;32;37215;-70
2022/03/30 11:56:33;;;;;;;19.12;10.32;;;;;;;21.35;21.91;98393.97;7791188;32;39235;-69
2022/03/30 12:00:49;;;;;;;22.35;11.50;;;;;;;21.39;21.66;98388.47;7791194;32;39852;-70
2022/03/30 12:05:07;;;;;;;21.60;11.50;;;;;;;21.13;21.54;98381.03;7792287;32;38012;-69
2022/03/30 12:09:24;;;;;;;26.87;11.45;;;;;;;21.21;21.81;98374.38;7791559;32;36477;-81
2022/03/30 12:13:51;;;;;;;22.40;11.45;;;;;;;20.69;23.01;98373.31;7796399;32;39312;-82
2022/03/30 12:18:08;;;;;;;20.40;10.65;;;;;;;20.71;23.76;98365.44;7785831;32;39889;-70
2022/03/30 12:22:24;;;;;;;23.45;10.85;;;;;;;21.46;22.11;98354.50;7791500;32;38750;-70
2022/03/30 12:26:40;;;;;;;21.30;10.68;;;;;;;21.66;21.85;98355.09;7791064;32;37114;-70
2022/03/30 12:30:56;;;;;;;19.52;10.45;;;;;;;21.68;21.33;98350.78;7795047;32;39240;-71
2022/03/30 12:35:16;;;;;;;22.40;11.40;;;;;;;20.76;22.92;98351.25;7802624;32;40593;-70
2022/03/30 12:39:40;;;;;;;20.17;9.95;;;;;;;20.80;22.60;98343.81;7812052;32;39243;-71
2022/03/30 12:44:01;;;;;;;22.23;10.15;;;;;;;21.14;21.99;98335.50;7801203;32;37932;-70
2022/03/30 12:48:17;;;;;;;19.48;10.80;;;;;;;21.24;22.49;98331.28;7817785;32;39949;-70
2022/03/30 12:52:42;;;;;;;23.10;10.02;;;;;;;19.94;24.21;98325.88;7817128;32;39651;-70
2022/03/30 12:56:58;;;;;;;20.25;10.35;;;;;;;20.81;22.98;98303.84;7818188;32;37843;-70
2022/03/30 13:01:28;;;;;;;22.33;9.90;;;;;;;21.06;23.30;98304.16;7809268;32;37310;-70
2022/03/30 13:05:46;;;;;;;24.33;10.80;;;;;;;20.53;23.88;98307.81;7786762;32;38846;-70
2022/03/30 13:10:11;;;;;;;29.35;10.90;;;;;;;20.20;24.67;98303.78;7791692;32;39442;-69
2022/03/30 13:14:27;;;;;;;21.70;10.77;;;;;;;20.02;25.39;98291.66;7803677;32;38698;-70
2022/03/30 13:18:58;;;;;;;18.40;10.55;;;;;;;20.58;24.06;98282.56;7817884;32;37878;-70
2022/03/30 13:23:16;;;;;;;20.48;9.77;;;;;;;20.41;24.17;98288.69;7805621;32;40028;-69
2022/03/30 13:27:41;;;;;;;19.83;10.70;;;;;;;20.47;24.76;98286.37;7817062;32;39594;-70
2022/03/30 13:31:57;;;;;;;23.08;10.70;;;;;;;20.07;25.41;98280.28;7807478;32;38062;-68
2022/03/30 13:36:13;;;;;;;20.12;10.05;;;;;;;19.75;25.94;98282.53;7789914;32;37173;-69
2022/03/30 13:40:30;;;;;;;19.00;9.82;;;;;;;19.81;26.05;98276.31;7801367;32;39981;-69
2022/03/30 13:44:47;;;;;;;20.65;9.50;;;;;;;19.47;26.44;98267.84;7786766;32;40817;-69
2022/03/30 13:49:05;;;;;;;22.83;9.85;;;;;;;18.97;27.47;98277.94;7798944;32;38018;-69
2022/03/30 13:53:22;;;;;;;17.42;9.00;;;;;;;18.99;27.84;98266.53;7789842;32;37013;-69
2022/03/30 13:57:39;;;;;;;20.65;9.70;;;;;;;18.65;28.28;98271.75;7789004;32;40305;-69
2022/03/30 14:01:56;;;;;;;23.77;10.15;;;;;;;18.76;28.20;98273.59;7804530;32;40802;-69
2022/03/30 14:06:13;;;;;;;18.50;9.00;;;;;;;18.32;29.53;98265.56;7820340;32;37758;-69
2022/03/30 14:10:30;;;;;;;18.70;9.02;;;;;;;18.30;29.85;98265.13;7819187;32;37749;-69
2022/03/30 14:14:46;;;;;;;22.42;9.70;;;;;;;17.81;30.73;98269.06;7803508;32;38908;-70
2022/03/30 14:19:02;;;;;;;20.48;10.15;;;;;;;17.49;31.50;98275.75;7792715;32;38855;-69
2022/03/30 14:23:18;;;;;;;19.48;8.88;;;;;;;17.02;31.62;98274.53;7803687;32;37521;-69
2022/03/30 14:27:35;;;;;;;17.48;9.20;;;;;;;16.93;31.48;98279.41;7802202;32;37001;-69
2022/03/30 14:31:52;;;;;;;18.45;9.68;;;;;;;16.92;31.37;98281.34;7802966;32;39886;-69
2022/03/30 14:36:08;;;;;;;22.80;8.73;;;;;;;16.77;31.52;98277.34;7820154;32;39901;-69
2022/03/30 14:40:25;;;;;;;15.43;8.35;;;;;;;16.52;32.44;98282.94;7820243;32;37625;-69
2022/03/30 14:44:41;;;;;;;12.20;6.90;;;;;;;16.51;33.55;98286.84;7805800;32;37782;-69
2022/03/30 14:48:58;;;;;;;20.25;8.02;;;;;;;16.79;33.42;98288.81;7792827;32;39235;-69
2022/03/30 14:53:14;;;;;;;15.85;7.28;;;;;;;16.40;33.98;98285.72;7809030;32;40029;-69
2022/03/30 14:57:30;;;;;;;19.10;7.87;;;;;;;16.39;33.75;98294.34;7805704;32;37820;-67
2022/03/30 15:01:46;;;;;;;18.17;7.75;;;;;;;16.01;34.48;98293.56;7807183;32;38224;-69
2022/03/30 15:06:02;;;;;;;16.90;7.60;;;;;;;16.07;34.11;98285.87;7816670;32;39721;-69
2022/03/30 15:10:19;;;;;;;14.65;7.07;;;;;;;16.39;33.64;98283.31;7819860;32;39986;-68
2022/03/30 15:14:35;;;;;;;19.00;8.85;;;;;;;16.27;34.73;98287.69;7817477;32;37904;-69
2022/03/30 15:18:51;;;;;;;28.42;9.18;;;;;;;16.63;33.90;98276.97;7809404;32;37854;-69
2022/03/30 15:23:07;;;;;;;13.88;7.90;;;;;;;16.66;33.85;98287.25;7801587;32;39242;-69
2022/03/30 15:27:31;;;;;;;16.50;7.78;;;;;;;16.51;33.75;98269.53;7795666;32;40052;-69
2022/03/30 15:31:49;;;;;;;17.02;7.60;;;;;;;16.19;34.63;98269.38;7795950;32;38628;-68
2022/03/30 15:36:05;;;;;;;17.42;7.82;;;;;;;16.58;33.80;98268.94;7796912;32;36201;-68
2022/03/30 15:40:21;;;;;;;12.52;6.87;;;;;;;16.57;34.08;98256.34;7816539;32;40010;-68
2022/03/30 15:44:39;;;;;;;16.37;8.02;;;;;;;16.19;35.05;98268.56;7793625;32;41044;-68
2022/03/30 15:48:55;;;;;;;18.23;7.05;;;;;;;16.64;34.77;98257.34;7792070;32;37897;-68
2022/03/30 15:53:11;;;;;;;20.62;7.28;;;;;;;16.20;35.94;98253.69;7794314;32;37942;-68
2022/03/30 15:57:29;;;;;;;14.68;7.00;;;;;;;16.04;36.89;98251.66;7818873;32;40206;-68
2022/03/30 16:01:45;;;;;;;20.58;7.28;;;;;;;16.40;36.63;98241.72;7819222;32;40091;-67
2022/03/30 16:06:01;;;;;;;18.85;6.15;;;;;;;16.52;36.83;98247.19;7818988;32;37999;-67
2022/03/30 16:10:17;;;;;;;23.00;6.93;;;;;;;16.73;36.78;98237.12;7805284;32;37051;-68
2022/03/30 16:14:34;;;;;;;15.57;6.10;;;;;;;16.31;38.27;98249.28;7819031;32;40117;-70
2022/03/30 16:18:50;;;;;;;11.60;5.75;;;;;;;15.81;39.67;98259.56;7818865;32;40690;-71
2022/03/30 16:23:06;;;;;;;14.02;7.20;;;;;;;15.19;41.48;98255.91;7819014;32;37812;-70
2022/03/30 16:27:22;;;;;;;13.10;6.65;;;;;;;15.46;40.88;98248.19;7818769;32;37607;-71
2022/03/30 16:31:39;;;;;;;14.48;5.93;;;;;;;14.97;42.29;98255.19;7803836;32;40039;-71
2022/03/30 16:35:56;;;;;;;11.75;6.40;;;;;;;15.18;41.73;98246.09;7789757;32;39950;-70
2022/03/30 16:40:13;;;;;;;13.75;5.87;;;;;;;15.13;41.95;98246.31;7791067;32;37758;-70
2022/03/30 16:44:29;;;;;;;16.08;6.68;;;;;;;14.92;42.24;98244.41;7791221;32;37148;-69
2022/03/30 16:48:45;;;;;;;22.62;6.85;;;;;;;15.18;41.68;98254.31;7796954;32;164691;-69
2022/03/30 16:53:01;;;;;;;12.63;6.57;;;;;;;15.35;41.33;98239.56;7793577;32;40662;-70
2022/03/30 16:57:17;;;;;;;17.98;6.47;;;;;;;15.42;40.99;98247.25;7800211;32;38701;-69
2022/03/30 17:01:34;;;;;;;16.12;6.18;;;;;;;15.39;41.20;98235.81;7799760;32;37447;-70
2022/03/30 17:05:51;;;;;;;13.27;5.70;;;;;;;15.57;40.90;98235.59;7817765;32;39885;-70
2022/03/30 17:10:07;;;;;;;11.43;6.20;;;;;;;15.61;40.67;98221.97;7818266;32;39885;-69
2022/03/30 17:14:24;;;;;;;16.60;6.78;;;;;;;15.50;40.99;98227.13;7805379;32;37965;-69
2022/03/30 17:18:40;;;;;;;14.00;6.30;;;;;;;15.33;41.57;98239.94;7789430;32;37719;-69
2022/03/30 17:22:57;;;;;;;17.80;6.72;;;;;;;15.40;41.32;98218.22;7791124;32;39301;-70
2022/03/30 17:27:14;;;;;;;10.88;6.07;;;;;;;15.65;40.42;98218.22;7789872;32;40825;-70
2022/03/30 17:31:30;;;;;;;14.90;5.78;;;;;;;15.44;40.70;98237.53;7790257;32;37569;-69
2022/03/30 17:35:46;;;;;;;13.62;6.28;;;;;;;15.34;41.05;98224.25;7790844;32;37722;-70
2022/03/30 17:40:03;;;;;;;14.75;6.20;;;;;;;15.19;41.26;98228.47;7794126;32;39202;-71
2022/03/30 17:44:20;;;;;;;15.25;6.37;;;;;;;15.52;40.48;98224.84;7791175;32;40089;-71
2022/03/30 17:53:11;;;;;;;12.50;5.78;;;;;;;15.14;41.13;98221.28;7821299;32;37805;-70
2022/03/30 17:57:27;;;;;;;10.68;6.35;;;;;;;14.98;41.92;98232.06;7819890;32;39283;-70
2022/03/30 18:01:44;;;;;;;16.20;6.62;;;;;;;14.88;41.51;98237.97;7800168;32;40800;-69
2022/03/30 18:06:00;;;;;;;13.70;6.07;;;;;;;15.02;41.46;98238.50;7800014;32;39148;-69
2022/03/30 18:10:16;;;;;;;17.15;6.80;;;;;;;15.03;41.18;98245.56;7818929;32;37667;-69
2022/03/30 18:14:35;;;;;;;14.07;5.93;;;;;;;15.21;40.56;98239.91;7805052;32;39274;-70
2022/03/30 18:18:52;;;;;;;12.35;6.28;;;;;;;15.07;41.09;98258.63;7793675;32;41027;-70
2022/03/30 18:23:09;;;;;;;12.98;5.75;;;;;;;14.90;40.87;98254.94;7793643;32;37926;-71
2022/03/30 18:27:28;;;;;;;13.10;6.10;;;;;;;14.63;41.46;98268.06;7793393;32;36954;-70
2022/03/30 18:31:45;;;;;;;13.90;5.62;;;;;;;14.80;41.49;98277.31;7793599;32;40052;-70
2022/03/30 18:36:11;;;;;;;18.48;7.18;;;;;;;14.64;41.93;98266.94;7799010;32;40848;-70
2022/03/30 18:40:30;;;;;;;15.15;7.03;;;;;;;14.55;41.84;98271.66;7819277;32;37808;-70
2022/03/30 18:44:49;;;;;;;14.52;6.60;;;;;;;14.73;41.49;98263.31;7801713;32;37057;-70
2022/03/30 18:49:06;;;;;;;20.52;6.68;;;;;;;14.78;41.80;98274.88;7791743;32;39269;-70
2022/03/30 18:53:28;;;;;;;16.80;6.07;;;;;;;14.60;42.27;98279.72;7792911;32;39943;-69
2022/03/30 18:57:44;;;;;;;17.50;5.80;;;;;;;14.37;42.88;98275.69;7791932;32;37669;-70
2022/03/30 19:02:00;;;;;;;15.52;6.40;;;;;;;14.20;43.45;98269.19;7792549;32;37157;-70
2022/03/30 19:06:17;;;;;;;21.42;6.45;;;;;;;14.57;43.44;98277.63;7792244;32;39340;-70
2022/03/30 19:10:33;;;;;;;16.35;5.85;;;;;;;14.42;44.36;98280.97;7792433;32;40652;-70
2022/03/30 19:14:50;;;;;;;19.10;5.62;;;;;;;14.75;43.37;98272.81;7792793;32;37933;-70
2022/03/30 19:19:06;;;;;;;20.08;6.97;;;;;;;14.41;43.90;98276.63;7819409;32;37048;-69
2022/03/30 19:23:30;;;;;;;14.93;5.28;;;;;;;14.53;43.78;98273.13;7806178;32;39179;-69
2022/03/30 19:27:56;;;;;;;10.88;5.50;;;;;;;14.49;43.60;98273.00;7819016;32;40765;-69
2022/03/30 19:32:12;;;;;;;14.60;5.15;;;;;;;13.82;44.86;98289.22;7819230;32;37119;-69
2022/03/30 19:36:28;;;;;;;16.05;4.70;;;;;;;14.12;43.94;98261.00;7812943;32;37740;-69
2022/03/30 19:40:45;;;;;;;12.05;5.57;;;;;;;14.21;43.87;98273.53;7791786;32;39163;-70
2022/03/30 19:45:04;;;;;;;13.15;4.45;;;;;;;14.10;43.98;98258.59;7812082;32;38834;-70
2022/03/30 19:49:20;;;;;;;12.88;4.90;;;;;;;14.31;44.06;98244.91;7816968;32;37605;-70
2022/03/30 19:53:36;;;;;;;15.52;4.85;;;;;;;14.27;44.18;98238.50;7818405;32;36806;-70
2022/03/30 19:57:52;;;;;;;14.50;5.20;;;;;;;14.35;44.24;98242.28;7804988;32;40242;-69
2022/03/30 20:02:08;;;;;;;12.15;5.45;;;;;;;14.22;44.55;98230.47;7789774;32;39658;-69
2022/03/30 20:06:28;;;;;;;10.05;5.47;;;;;;;14.53;43.96;98234.75;7791315;32;38491;-70